Time;durP1;ratioP1;P1;durP2;ratioP2;P2;SDS_P1;SDS_P2;PMS_P1;PMS_P2;Temp;Humidity;BMP_temperature;BMP_pressure;BME280_temperature;BME280_humidity;BME280_pressure;Samples;Min_cycle;Max_cycle;Signal;HPM_P1;HPM_P2
2023/12/10 00:00:05;;;;;;;23.47;4.20;;;9.50;98.80;;;;;;5093845;28;20479;-79
2023/12/10 00:02:31;;;;;;;24.47;3.90;;;9.60;98.90;;;;;;5093384;28;20471;-80
2023/12/10 00:04:57;;;;;;;20.73;4.53;;;9.60;98.50;;;;;;5093863;28;20028;-80
2023/12/10 00:07:23;;;;;;;27.13;3.30;;;9.60;98.30;;;;;;5093965;28;20086;-80
2023/12/10 00:09:48;;;;;;;33.07;4.47;;;9.60;98.40;;;;;;5093439;28;20024;-80
2023/12/10 00:12:14;;;;;;;29.42;5.57;;;9.60;98.20;;;;;;5075680;28;20060;-79
2023/12/10 00:14:39;;;;;;;26.37;4.47;;;9.70;98.20;;;;;;5093736;28;20032;-79
2023/12/10 00:17:05;;;;;;;23.27;3.70;;;9.70;98.30;;;;;;5093526;28;20032;-79
2023/12/10 00:22:06;;;;;;;31.13;4.37;;;9.70;97.80;;;;;;4658685;22;20050;-81
2023/12/10 00:24:32;;;;;;;25.27;4.43;;;9.70;97.90;;;;;;5052259;28;20053;-80
2023/12/10 00:26:57;;;;;;;19.30;3.50;;;9.80;97.80;;;;;;5034955;28;20393;-80
2023/12/10 00:29:23;;;;;;;26.38;5.00;;;9.80;97.80;;;;;;5047366;28;20051;-80
2023/12/10 00:31:49;;;;;;;26.33;4.83;;;9.80;98.00;;;;;;5035735;28;20266;-80
2023/12/10 00:34:15;;;;;;;24.83;4.40;;;9.80;98.30;;;;;;5039404;28;20065;-80
2023/12/10 00:36:41;;;;;;;28.93;4.30;;;9.80;98.60;;;;;;5052962;28;20473;-79
2023/12/10 00:39:06;;;;;;;37.40;5.63;;;9.70;99.10;;;;;;5060071;28;20040;-80
2023/12/10 00:41:32;;;;;;;29.33;5.53;;;9.70;99.60;;;;;;5038760;28;20056;-81
2023/12/10 00:43:58;;;;;;;32.70;5.67;;;9.60;99.90;;;;;;5061912;28;20404;-80
2023/12/10 00:46:23;;;;;;;28.53;4.90;;;9.60;99.90;;;;;;5036854;28;20063;-80
2023/12/10 00:48:49;;;;;;;30.93;4.90;;;9.60;99.90;;;;;;5052954;28;20552;-79
2023/12/10 00:51:22;;;;;;;34.07;4.67;;;9.50;99.90;;;;;;5052771;28;20029;-80
2023/12/10 00:53:48;;;;;;;27.90;4.27;;;9.40;99.90;;;;;;5060669;28;20039;-80
2023/12/10 00:56:14;;;;;;;34.17;5.60;;;9.40;99.90;;;;;;5034379;28;20035;-80
2023/12/10 00:58:40;;;;;;;30.97;4.57;;;9.30;99.90;;;;;;5031787;28;20026;-80
2023/12/10 01:01:07;;;;;;;31.27;6.23;;;9.30;99.90;;;;;;5032994;28;20030;-80
2023/12/10 01:03:33;;;;;;;29.60;5.47;;;9.20;99.90;;;;;;5032776;28;20053;-80
2023/12/10 01:06:00;;;;;;;39.80;7.77;;;9.20;99.90;;;;;;5031386;28;20539;-80
2023/12/10 01:08:26;;;;;;;29.00;4.33;;;9.20;99.90;;;;;;5032828;28;20041;-80
2023/12/10 01:10:52;;;;;;;29.23;4.47;;;9.10;99.90;;;;;;5040450;28;20021;-80
2023/12/10 01:13:17;;;;;;;26.90;4.10;;;9.10;99.90;;;;;;5062673;28;20384;-80
2023/12/10 01:15:43;;;;;;;28.90;4.33;;;9.00;99.90;;;;;;5056964;28;20068;-80
2023/12/10 01:18:09;;;;;;;33.30;5.90;;;9.00;99.90;;;;;;5055717;28;20025;-79
2023/12/10 01:20:37;;;;;;;26.90;4.20;;;9.00;99.90;;;;;;5056702;28;20365;-80
2023/12/10 01:23:07;;;;;;;39.03;5.37;;;9.00;99.90;;;;;;5055224;28;20190;-80
2023/12/10 01:25:32;;;;;;;31.77;5.17;;;8.90;99.90;;;;;;5056481;28;20036;-79
2023/12/10 01:27:58;;;;;;;29.87;5.87;;;8.90;99.90;;;;;;5056821;28;20029;-80
2023/12/10 01:30:24;;;;;;;37.17;5.60;;;8.80;99.90;;;;;;5056809;28;20033;-80
2023/12/10 01:32:55;;;;;;;30.07;5.50;;;8.80;99.90;;;;;;5056329;28;20110;-80
2023/12/10 01:35:21;;;;;;;28.93;4.60;;;8.80;99.90;;;;;;5054864;28;20472;-80
2023/12/10 01:37:47;;;;;;;32.23;4.80;;;8.70;99.90;;;;;;5056428;28;20033;-80
2023/12/10 01:40:13;;;;;;;24.43;3.80;;;8.70;99.90;;;;;;5055010;28;20078;-80
2023/12/10 01:42:41;;;;;;;31.17;5.07;;;8.70;99.90;;;;;;5055274;28;20071;-80
2023/12/10 01:45:07;;;;;;;29.57;5.40;;;8.70;99.90;;;;;;5066832;28;20036;-81
2023/12/10 01:47:35;;;;;;;31.67;5.47;;;8.70;99.90;;;;;;5076058;28;20021;-79
2023/12/10 01:50:05;;;;;;;25.47;4.73;;;8.60;99.90;;;;;;5075580;28;20468;-80
2023/12/10 01:52:32;;;;;;;28.83;3.57;;;8.60;99.90;;;;;;5058268;28;20017;-80
2023/12/10 01:55:01;;;;;;;28.10;3.50;;;8.60;99.90;;;;;;5075745;28;20060;-79
2023/12/10 01:57:27;;;;;;;23.83;3.20;;;8.60;99.90;;;;;;5057658;28;20079;-80
2023/12/10 01:59:53;;;;;;;29.60;4.10;;;8.60;99.90;;;;;;5075932;28;20032;-79
2023/12/10 02:02:20;;;;;;;27.93;4.77;;;8.60;99.90;;;;;;5057683;28;20043;-80
2023/12/10 02:04:46;;;;;;;23.77;4.20;;;8.50;99.90;;;;;;5057574;28;20033;-79
2023/12/10 02:07:12;;;;;;;28.63;3.90;;;8.50;99.90;;;;;;5075702;28;20550;-81
2023/12/10 02:09:37;;;;;;;28.30;4.70;;;8.40;99.90;;;;;;5075908;28;20526;-80
2023/12/10 02:12:04;;;;;;;23.30;3.10;;;8.40;99.90;;;;;;5057744;28;20365;-79
2023/12/10 02:14:29;;;;;;;27.43;4.03;;;8.40;99.90;;;;;;5075449;28;20033;-79
2023/12/10 02:16:55;;;;;;;27.37;3.80;;;8.40;99.90;;;;;;5075534;28;20531;-80
2023/12/10 02:19:21;;;;;;;34.63;4.27;;;8.40;99.90;;;;;;5075454;28;20475;-80
2023/12/10 02:21:50;;;;;;;31.00;4.60;;;8.40;99.90;;;;;;5075665;28;20146;-80
2023/12/10 02:24:24;;;;;;;29.93;3.93;;;8.40;99.90;;;;;;5074660;28;20504;-80
2023/12/10 02:26:50;;;;;;;30.43;4.17;;;8.30;99.90;;;;;;5057739;28;20082;-80
2023/12/10 02:29:16;;;;;;;35.77;4.73;;;8.30;99.90;;;;;;5075410;28;20033;-81
2023/12/10 02:31:42;;;;;;;30.17;5.50;;;8.30;99.90;;;;;;5075447;28;20059;-80
2023/12/10 02:34:08;;;;;;;28.70;4.57;;;8.30;99.90;;;;;;5075017;28;20438;-80
2023/12/10 02:36:34;;;;;;;23.60;4.03;;;8.20;99.90;;;;;;5075204;28;20033;-81
2023/12/10 02:38:59;;;;;;;26.47;4.43;;;8.20;99.90;;;;;;5075501;28;20030;-80
2023/12/10 02:41:25;;;;;;;21.90;3.30;;;8.20;99.90;;;;;;5074921;28;20028;-82
2023/12/10 02:43:51;;;;;;;34.33;3.80;;;8.20;99.90;;;;;;5074918;28;20506;-81
2023/12/10 02:46:17;;;;;;;32.63;3.67;;;8.10;99.90;;;;;;5074767;28;20036;-80
2023/12/10 02:48:42;;;;;;;32.83;4.70;;;8.10;99.90;;;;;;5070501;28;20107;-81
2023/12/10 02:51:08;;;;;;;35.30;6.03;;;8.00;99.90;;;;;;5063522;28;20033;-81
2023/12/10 02:53:33;;;;;;;28.90;3.80;;;8.00;99.90;;;;;;5054984;28;20036;-79
2023/12/10 02:55:59;;;;;;;43.10;5.57;;;7.90;99.90;;;;;;5054806;28;20037;-81
2023/12/10 02:58:25;;;;;;;36.53;5.30;;;7.90;99.90;;;;;;5054658;28;20040;-81
2023/12/10 03:00:51;;;;;;;39.03;5.17;;;7.90;99.90;;;;;;5054933;28;20021;-81
2023/12/10 03:03:16;;;;;;;51.37;7.00;;;7.80;99.90;;;;;;5055038;28;20047;-80
2023/12/10 03:05:42;;;;;;;34.83;4.70;;;7.80;99.90;;;;;;5054798;28;20029;-81
2023/12/10 03:08:07;;;;;;;46.53;5.13;;;7.80;99.90;;;;;;5053362;28;20516;-81
2023/12/10 03:10:33;;;;;;;30.53;4.17;;;7.70;99.90;;;;;;5054592;28;20036;-81
2023/12/10 03:12:59;;;;;;;49.83;5.43;;;7.70;99.90;;;;;;5036810;28;20449;-80
2023/12/10 03:15:24;;;;;;;29.97;5.00;;;7.70;99.90;;;;;;5054535;28;20021;-83
2023/12/10 03:17:50;;;;;;;38.60;4.03;;;7.70;99.90;;;;;;5054436;28;20025;-82
2023/12/10 03:20:16;;;;;;;31.20;4.33;;;7.70;99.90;;;;;;5054071;28;20029;-81
2023/12/10 03:22:41;;;;;;;39.57;5.40;;;7.60;99.90;;;;;;5054414;28;20087;-81
2023/12/10 03:25:07;;;;;;;39.27;5.93;;;7.60;99.90;;;;;;5054405;28;20040;-80
2023/12/10 03:27:33;;;;;;;44.60;5.73;;;7.60;99.90;;;;;;5052985;28;20025;-81
2023/12/10 03:29:59;;;;;;;36.20;6.00;;;7.60;99.90;;;;;;5054206;28;20033;-81
2023/12/10 03:32:25;;;;;;;42.73;4.83;;;7.60;99.90;;;;;;5054199;28;20166;-83
2023/12/10 03:34:50;;;;;;;45.10;4.40;;;7.60;99.90;;;;;;5054171;28;20032;-82
2023/12/10 03:37:16;;;;;;;33.40;5.63;;;7.60;99.90;;;;;;5052142;28;20036;-80
2023/12/10 03:39:42;;;;;;;36.00;5.80;;;7.60;99.90;;;;;;5052723;28;20056;-82
2023/12/10 03:42:07;;;;;;;44.23;6.77;;;7.60;99.90;;;;;;5036040;28;20025;-80
2023/12/10 03:44:33;;;;;;;36.67;7.20;;;7.60;99.90;;;;;;5053864;28;20026;-82
2023/12/10 03:47:02;;;;;;;52.80;6.50;;;7.50;99.90;;;;;;5054052;28;20519;-82
2023/12/10 03:49:29;;;;;;;37.13;5.00;;;7.60;99.90;;;;;;5054059;28;20029;-81
2023/12/10 03:51:57;;;;;;;47.07;6.13;;;7.50;99.90;;;;;;5053884;28;20028;-82
2023/12/10 03:54:24;;;;;;;42.17;5.43;;;7.60;99.90;;;;;;5053745;28;20431;-80
2023/12/10 03:56:49;;;;;;;38.83;6.20;;;7.60;99.90;;;;;;5053663;28;20481;-81
2023/12/10 03:59:15;;;;;;;51.90;6.90;;;7.60;99.90;;;;;;5053407;28;20026;-82
2023/12/10 04:01:44;;;;;;;45.00;6.80;;;7.60;99.90;;;;;;5053981;28;20074;-81
2023/12/10 04:04:11;;;;;;;57.53;7.30;;;7.60;99.90;;;;;;5053541;28;20033;-84
2023/12/10 04:06:41;;;;;;;51.83;6.23;;;7.60;99.90;;;;;;5053507;28;20037;-80
2023/12/10 04:09:08;;;;;;;55.90;6.53;;;7.60;99.90;;;;;;5053320;28;20037;-82
2023/12/10 04:11:34;;;;;;;38.37;6.27;;;7.60;99.90;;;;;;5053617;28;20033;-81
2023/12/10 04:13:59;;;;;;;31.63;5.27;;;7.60;99.90;;;;;;5053483;28;20025;-81
2023/12/10 04:16:27;;;;;;;46.57;5.53;;;7.60;99.90;;;;;;5051805;28;20033;-83
2023/12/10 04:18:53;;;;;;;51.97;8.00;;;7.60;99.90;;;;;;5053438;28;20032;-81
2023/12/10 04:21:20;;;;;;;44.73;5.50;;;7.50;99.90;;;;;;5053240;28;20083;-80
2023/12/10 04:23:46;;;;;;;39.93;6.17;;;7.60;99.90;;;;;;5052987;28;20083;-81
2023/12/10 04:26:11;;;;;;;40.93;6.53;;;7.60;99.90;;;;;;5051676;28;20053;-81
2023/12/10 04:28:43;;;;;;;43.13;6.07;;;7.60;99.90;;;;;;5053025;28;20041;-82
2023/12/10 04:31:09;;;;;;;34.13;5.27;;;7.60;99.90;;;;;;5051892;28;20033;-82
2023/12/10 04:33:35;;;;;;;38.80;6.63;;;7.60;99.90;;;;;;5052091;28;20091;-82
2023/12/10 04:36:02;;;;;;;38.63;6.27;;;7.70;99.90;;;;;;5053235;28;20033;-81
2023/12/10 04:38:28;;;;;;;50.77;6.40;;;7.60;99.90;;;;;;5053081;28;20543;-82
2023/12/10 04:40:54;;;;;;;45.47;6.30;;;7.60;99.90;;;;;;5051410;28;20037;-81
2023/12/10 04:43:20;;;;;;;43.07;6.27;;;7.60;99.90;;;;;;5052836;28;20112;-81
2023/12/10 04:45:46;;;;;;;49.53;6.20;;;7.70;99.90;;;;;;5053128;28;20104;-82
2023/12/10 04:48:12;;;;;;;54.17;5.70;;;7.60;99.90;;;;;;5053496;28;20067;-82
2023/12/10 04:50:39;;;;;;;40.90;5.73;;;7.60;99.90;;;;;;5053003;28;20033;-82
2023/12/10 04:53:04;;;;;;;43.37;7.03;;;7.60;99.90;;;;;;5052607;28;20021;-82
2023/12/10 04:55:30;;;;;;;41.80;5.37;;;7.70;99.90;;;;;;5052862;28;20025;-83
2023/12/10 04:57:56;;;;;;;39.27;6.17;;;7.70;99.90;;;;;;5050438;28;20025;-82
2023/12/10 05:00:21;;;;;;;43.97;6.17;;;7.70;99.90;;;;;;5068982;28;20028;-80
2023/12/10 05:02:47;;;;;;;39.67;5.60;;;7.70;99.90;;;;;;5072622;28;20036;-83
2023/12/10 05:05:14;;;;;;;36.67;5.77;;;7.70;99.90;;;;;;5072704;28;20028;-81
2023/12/10 05:07:40;;;;;;;46.30;6.37;;;7.70;99.90;;;;;;5054664;28;20032;-83
2023/12/10 05:10:06;;;;;;;36.90;7.07;;;7.70;99.90;;;;;;5072405;28;20029;-80
2023/12/10 05:12:31;;;;;;;46.30;5.97;;;7.70;99.90;;;;;;5072653;28;20037;-82
2023/12/10 05:14:57;;;;;;;39.83;5.80;;;7.70;99.90;;;;;;5054720;28;20033;-81
2023/12/10 05:17:23;;;;;;;47.37;5.70;;;7.70;99.90;;;;;;5072659;28;20036;-83
2023/12/10 05:19:49;;;;;;;34.90;5.93;;;7.70;99.90;;;;;;5054511;28;20086;-81
2023/12/10 05:22:15;;;;;;;42.07;6.40;;;7.80;99.90;;;;;;5072158;28;20053;-80
2023/12/10 05:24:43;;;;;;;43.70;6.67;;;7.80;99.90;;;;;;5059697;28;20048;-79
2023/12/10 05:27:11;;;;;;;39.80;5.33;;;7.80;99.90;;;;;;5052302;28;20481;-80
2023/12/10 05:29:36;;;;;;;50.80;5.87;;;7.80;99.90;;;;;;5052510;28;20048;-82
2023/12/10 05:32:02;;;;;;;46.33;6.43;;;7.80;99.90;;;;;;5052368;28;20033;-80
2023/12/10 05:34:28;;;;;;;28.47;4.43;;;7.90;99.90;;;;;;5052420;28;20036;-82
2023/12/10 05:36:54;;;;;;;41.73;5.57;;;7.90;99.90;;;;;;5052570;28;20037;-81
2023/12/10 05:39:20;;;;;;;41.10;4.80;;;7.90;99.90;;;;;;5052271;28;20033;-82
2023/12/10 05:41:45;;;;;;;36.47;5.57;;;7.90;99.90;;;;;;5067413;28;20040;-82
2023/12/10 05:44:11;;;;;;;34.27;4.80;;;7.90;99.90;;;;;;5034332;28;20045;-80
2023/12/10 05:46:37;;;;;;;33.73;5.10;;;8.00;99.90;;;;;;5034585;28;20036;-81
2023/12/10 05:49:03;;;;;;;36.93;5.93;;;8.00;99.90;;;;;;5052366;28;20037;-84
2023/12/10 05:51:29;;;;;;;49.27;6.13;;;8.00;99.90;;;;;;5052279;28;20507;-81
2023/12/10 05:53:56;;;;;;;30.77;4.20;;;8.00;99.90;;;;;;5052566;28;20040;-82
2023/12/10 05:56:21;;;;;;;37.43;5.23;;;8.00;99.90;;;;;;5051853;28;20037;-81
2023/12/10 05:58:47;;;;;;;32.70;4.63;;;8.10;99.90;;;;;;5052825;28;20098;-80
2023/12/10 06:01:12;;;;;;;34.30;5.00;;;8.10;99.90;;;;;;5056043;28;20088;-81
2023/12/10 06:03:38;;;;;;;28.93;4.23;;;8.10;99.90;;;;;;5055549;28;20392;-81
2023/12/10 06:06:04;;;;;;;23.90;4.20;;;8.10;99.90;;;;;;5055870;28;20396;-80
2023/12/10 06:08:29;;;;;;;37.33;4.70;;;8.10;99.90;;;;;;5055910;28;20440;-81
2023/12/10 06:10:55;;;;;;;31.47;3.40;;;8.10;99.90;;;;;;5055621;28;20481;-81
2023/12/10 06:13:21;;;;;;;21.03;4.07;;;8.10;99.90;;;;;;5055794;28;20037;-82
2023/12/10 06:15:47;;;;;;;28.87;4.47;;;8.10;99.90;;;;;;5055648;28;20033;-79
2023/12/10 06:18:12;;;;;;;34.07;5.03;;;8.20;99.90;;;;;;5055413;28;20029;-80
2023/12/10 06:20:38;;;;;;;37.03;4.87;;;8.20;99.90;;;;;;5037466;28;20033;-82
2023/12/10 06:23:04;;;;;;;37.83;4.60;;;8.20;99.90;;;;;;5055583;28;20090;-81
2023/12/10 06:25:29;;;;;;;26.63;4.10;;;8.20;99.90;;;;;;5055307;28;20033;-80
2023/12/10 06:27:56;;;;;;;22.73;3.93;;;8.30;99.90;;;;;;5037341;28;20025;-81
2023/12/10 06:30:23;;;;;;;25.60;4.47;;;8.30;99.90;;;;;;5055614;28;20029;-79
2023/12/10 06:32:49;;;;;;;26.80;3.53;;;8.30;99.90;;;;;;5055820;28;20028;-81
2023/12/10 06:35:14;;;;;;;27.23;5.10;;;8.40;99.90;;;;;;5070728;28;20585;-82
2023/12/10 06:37:41;;;;;;;21.97;3.10;;;8.30;99.90;;;;;;5055350;28;20440;-82
2023/12/10 06:40:07;;;;;;;32.93;4.57;;;8.30;99.90;;;;;;5070656;28;20060;-81
2023/12/10 06:42:34;;;;;;;30.97;4.50;;;8.40;99.90;;;;;;5054927;28;20480;-80
2023/12/10 06:45:00;;;;;;;34.03;4.43;;;8.30;99.90;;;;;;5070551;28;20029;-78
2023/12/10 06:47:26;;;;;;;25.10;3.53;;;8.30;99.90;;;;;;5037123;28;20025;-82
2023/12/10 06:49:52;;;;;;;27.93;4.03;;;8.40;99.90;;;;;;5070250;28;20040;-81
2023/12/10 06:52:17;;;;;;;28.87;4.27;;;8.40;99.90;;;;;;5037183;28;20025;-80
2023/12/10 06:54:44;;;;;;;28.10;4.00;;;8.40;99.90;;;;;;5054576;28;20033;-82
2023/12/10 06:57:10;;;;;;;30.40;4.80;;;8.40;99.90;;;;;;5054933;28;20029;-81
2023/12/10 06:59:35;;;;;;;33.50;4.20;;;8.40;99.90;;;;;;5054801;28;20048;-80
2023/12/10 07:02:01;;;;;;;26.77;4.77;;;8.40;99.90;;;;;;5054696;28;20040;-81
2023/12/10 07:04:27;;;;;;;20.77;3.60;;;8.50;99.90;;;;;;5054575;28;20048;-81
2023/12/10 07:06:53;;;;;;;24.37;4.20;;;8.50;99.90;;;;;;5054709;28;20036;-81
2023/12/10 07:09:18;;;;;;;23.10;4.60;;;8.50;99.90;;;;;;5036606;28;20039;-82
2023/12/10 07:11:44;;;;;;;29.63;3.80;;;8.60;99.90;;;;;;5053285;28;20076;-81
2023/12/10 07:14:10;;;;;;;24.80;4.50;;;8.60;99.90;;;;;;5054601;28;20072;-81
2023/12/10 07:16:35;;;;;;;33.00;5.33;;;8.60;99.90;;;;;;5069439;28;20082;-80
2023/12/10 07:19:01;;;;;;;31.47;4.73;;;8.60;99.90;;;;;;5036429;28;20029;-82
2023/12/10 07:21:27;;;;;;;23.90;4.47;;;8.70;99.90;;;;;;5054325;28;20111;-81
2023/12/10 07:23:53;;;;;;;23.80;4.10;;;8.70;99.90;;;;;;5053879;28;20055;-80
2023/12/10 07:26:25;;;;;;;26.73;3.40;;;8.70;99.90;;;;;;5054490;28;20033;-80
2023/12/10 07:28:51;;;;;;;34.67;5.03;;;8.70;99.90;;;;;;5069744;28;20098;-81
2023/12/10 07:31:19;;;;;;;25.07;4.17;;;8.70;99.90;;;;;;5036122;28;20431;-79
2023/12/10 07:33:45;;;;;;;28.37;3.93;;;8.70;99.90;;;;;;5054548;28;20392;-80
2023/12/10 07:36:11;;;;;;;32.67;4.20;;;8.80;99.90;;;;;;5053941;28;20033;-81
2023/12/10 07:38:37;;;;;;;22.43;3.40;;;8.70;99.90;;;;;;5034506;28;20496;-80
2023/12/10 07:41:04;;;;;;;23.37;3.70;;;8.80;99.90;;;;;;5054124;28;20025;-80
2023/12/10 07:43:30;;;;;;;23.93;3.10;;;8.80;99.90;;;;;;5053915;28;20040;-78
2023/12/10 07:45:56;;;;;;;23.47;3.90;;;8.80;99.90;;;;;;5053874;28;20036;-81
2023/12/10 07:48:22;;;;;;;30.30;4.13;;;8.80;99.90;;;;;;5054076;28;20100;-79
2023/12/10 07:50:47;;;;;;;21.67;3.80;;;8.80;99.90;;;;;;5053620;28;20120;-81
2023/12/10 07:53:13;;;;;;;24.57;4.10;;;8.80;99.90;;;;;;5053826;28;20492;-81
2023/12/10 07:55:39;;;;;;;35.17;4.17;;;8.80;99.90;;;;;;5053857;28;20033;-80
2023/12/10 07:58:04;;;;;;;25.13;3.47;;;8.80;99.90;;;;;;5053830;28;20025;-81
2023/12/10 08:00:30;;;;;;;20.77;3.53;;;8.80;99.90;;;;;;5036048;28;20040;-79
2023/12/10 08:02:56;;;;;;;29.40;4.03;;;8.80;99.90;;;;;;5053381;28;20488;-79
2023/12/10 08:05:22;;;;;;;27.80;4.37;;;8.80;99.90;;;;;;5053714;28;20143;-80
2023/12/10 08:07:47;;;;;;;26.47;4.37;;;8.80;99.90;;;;;;5053514;28;20103;-80
2023/12/10 08:10:13;;;;;;;27.97;4.33;;;8.80;99.90;;;;;;5053610;28;20053;-80
2023/12/10 08:12:39;;;;;;;28.13;3.83;;;8.90;99.90;;;;;;5053546;28;20477;-80
2023/12/10 08:15:05;;;;;;;28.03;3.97;;;8.80;99.90;;;;;;5053285;28;20079;-81
2023/12/10 08:17:31;;;;;;;19.80;3.23;;;8.90;99.90;;;;;;5053507;28;20029;-81
2023/12/10 08:19:57;;;;;;;34.97;4.00;;;8.80;99.80;;;;;;5053882;28;20484;-81
2023/12/10 08:22:22;;;;;;;23.80;4.27;;;8.90;99.80;;;;;;5034645;28;20037;-80
2023/12/10 08:24:48;;;;;;;24.30;3.80;;;8.90;99.80;;;;;;5035444;28;20036;-80
2023/12/10 08:27:14;;;;;;;23.07;3.73;;;8.90;99.90;;;;;;5053321;28;20082;-81
2023/12/10 08:29:40;;;;;;;25.50;4.70;;;8.90;99.70;;;;;;5053144;28;20033;-80
2023/12/10 08:32:06;;;;;;;23.03;4.67;;;8.90;99.70;;;;;;5052874;28;20396;-80
2023/12/10 08:34:31;;;;;;;22.47;3.27;;;8.90;99.60;;;;;;5035277;28;20078;-80
2023/12/10 08:36:57;;;;;;;30.03;3.97;;;8.90;99.60;;;;;;5053253;28;20491;-81
2023/12/10 08:39:23;;;;;;;30.93;4.53;;;8.90;99.30;;;;;;5053209;28;20116;-81
2023/12/10 08:41:49;;;;;;;26.47;3.20;;;8.90;99.20;;;;;;5034887;28;20064;-81
2023/12/10 08:44:15;;;;;;;24.27;3.03;;;9.00;99.20;;;;;;5053035;28;20094;-81
2023/12/10 08:46:41;;;;;;;31.53;3.17;;;9.10;99.10;;;;;;5035467;28;20118;-81
2023/12/10 08:49:07;;;;;;;26.17;4.20;;;9.20;98.80;;;;;;5052920;28;20024;-81
2023/12/10 08:51:32;;;;;;;20.00;3.47;;;9.20;98.80;;;;;;5053194;28;20369;-80
2023/12/10 08:53:59;;;;;;;27.67;4.07;;;9.20;98.70;;;;;;5053024;28;20033;-81
2023/12/10 08:56:26;;;;;;;28.57;3.73;;;9.20;98.60;;;;;;5052891;28;20032;-80
2023/12/10 08:58:51;;;;;;;27.27;3.70;;;9.30;98.50;;;;;;5052805;28;20029;-81
2023/12/10 09:01:17;;;;;;;25.03;3.17;;;9.30;98.50;;;;;;5053037;28;20103;-80
2023/12/10 09:03:45;;;;;;;27.27;4.87;;;9.30;98.20;;;;;;5033504;28;20033;-81
2023/12/10 09:06:11;;;;;;;23.63;4.30;;;9.30;98.20;;;;;;5057839;28;20028;-80
2023/12/10 09:08:37;;;;;;;30.73;5.10;;;9.30;98.20;;;;;;5062456;28;20033;-80
2023/12/10 09:11:04;;;;;;;19.53;2.77;;;9.30;98.00;;;;;;5043088;28;21275;-80
2023/12/10 09:13:35;;;;;;;29.97;4.83;;;9.30;98.00;;;;;;5054644;28;20021;-80
2023/12/10 09:16:01;;;;;;;19.73;3.23;;;9.30;97.90;;;;;;5065548;28;20033;-85
2023/12/10 09:18:27;;;;;;;20.93;2.33;;;9.40;97.60;;;;;;5055137;28;20064;-81
2023/12/10 09:20:53;;;;;;;22.43;4.47;;;9.40;97.60;;;;;;5073111;28;20033;-80
2023/12/10 09:23:19;;;;;;;24.05;3.38;;;9.40;97.60;;;;;;5072603;28;20041;-82
2023/12/10 09:25:44;;;;;;;23.77;3.30;;;9.40;97.50;;;;;;5055117;28;20040;-81
2023/12/10 09:28:11;;;;;;;24.63;3.97;;;9.40;97.40;;;;;;5072691;28;20408;-82
2023/12/10 09:30:36;;;;;;;17.00;3.27;;;9.40;97.40;;;;;;5072735;28;20028;-82
2023/12/10 09:33:02;;;;;;;28.13;3.40;;;9.50;97.30;;;;;;5072312;28;20036;-83
2023/12/10 09:35:28;;;;;;;17.53;3.20;;;9.50;97.20;;;;;;5057972;28;20369;-81
2023/12/10 09:37:54;;;;;;;18.33;3.17;;;9.50;97.30;;;;;;5058575;28;20127;-81
2023/12/10 09:40:20;;;;;;;20.57;3.13;;;9.50;97.20;;;;;;5076523;28;20029;-81
2023/12/10 09:42:46;;;;;;;24.47;3.27;;;9.50;97.10;;;;;;5058412;28;20102;-80
2023/12/10 09:45:11;;;;;;;23.80;3.33;;;9.50;97.10;;;;;;5076265;28;20047;-81
2023/12/10 09:47:39;;;;;;;21.93;3.10;;;9.60;97.00;;;;;;5062805;28;20435;-82
2023/12/10 09:50:05;;;;;;;19.53;2.67;;;9.60;97.10;;;;;;5038429;28;20037;-81
2023/12/10 09:52:31;;;;;;;20.38;3.55;;;9.60;97.10;;;;;;5056291;28;20041;-82
2023/12/10 09:54:57;;;;;;;18.20;2.80;;;9.60;96.90;;;;;;5055930;28;20103;-81
2023/12/10 09:57:23;;;;;;;22.60;2.90;;;9.70;96.80;;;;;;5056147;28;20056;-81
2023/12/10 09:59:49;;;;;;;24.30;3.03;;;9.70;96.90;;;;;;5038858;28;20052;-81
2023/12/10 10:02:15;;;;;;;22.07;3.50;;;9.70;96.70;;;;;;5055975;28;20033;-82
2023/12/10 10:04:42;;;;;;;20.85;3.10;;;9.70;96.60;;;;;;5038133;28;20132;-82
2023/12/10 10:07:08;;;;;;;23.87;2.90;;;9.80;96.60;;;;;;5056368;28;20029;-81
2023/12/10 10:09:37;;;;;;;17.07;2.27;;;9.70;96.60;;;;;;5037689;28;20033;-80
2023/12/10 10:12:03;;;;;;;13.87;3.03;;;9.80;96.70;;;;;;5038202;28;20035;-82
2023/12/10 10:14:29;;;;;;;19.30;2.67;;;9.80;96.70;;;;;;5038005;28;20052;-81
2023/12/10 10:16:54;;;;;;;19.20;2.70;;;9.80;96.80;;;;;;5055535;28;20554;-80
2023/12/10 10:19:20;;;;;;;19.57;2.63;;;9.80;96.90;;;;;;5054401;28;20030;-79
2023/12/10 10:21:46;;;;;;;19.98;3.00;;;9.80;96.70;;;;;;5055472;28;20064;-80
2023/12/10 10:24:13;;;;;;;26.13;3.13;;;9.80;96.70;;;;;;5037230;28;20056;-81
2023/12/10 10:26:39;;;;;;;21.23;3.72;;;9.90;96.70;;;;;;5055545;28;20041;-80
2023/12/10 10:29:06;;;;;;;25.02;2.75;;;9.90;96.80;;;;;;5055206;28;20112;-79
2023/12/10 10:31:32;;;;;;;19.13;3.30;;;9.90;96.60;;;;;;5037543;28;20037;-80
2023/12/10 10:34:01;;;;;;;22.05;2.75;;;9.90;96.60;;;;;;5055379;28;20025;-81
2023/12/10 10:36:27;;;;;;;22.23;3.33;;;9.90;96.70;;;;;;5037464;28;20125;-80
2023/12/10 10:38:53;;;;;;;25.90;3.27;;;10.00;96.70;;;;;;5055269;28;20104;-80
2023/12/10 10:41:20;;;;;;;20.57;3.67;;;10.00;96.70;;;;;;5053523;28;20029;-81
2023/12/10 10:43:45;;;;;;;18.88;2.63;;;10.00;96.60;;;;;;5055088;28;20064;-81
2023/12/10 10:46:12;;;;;;;20.25;3.25;;;10.00;96.60;;;;;;5054631;28;20207;-78
2023/12/10 10:48:41;;;;;;;28.10;3.53;;;10.00;96.30;;;;;;5055067;28;20083;-81
2023/12/10 10:51:07;;;;;;;12.50;2.22;;;10.00;96.10;;;;;;5053971;28;20029;-81
2023/12/10 10:53:37;;;;;;;16.20;2.65;;;10.10;96.40;;;;;;5054765;28;20952;-80
2023/12/10 10:56:04;;;;;;;13.57;2.15;;;10.10;96.20;;;;;;5055108;28;20512;-81
2023/12/10 10:58:30;;;;;;;21.17;3.35;;;10.10;96.00;;;;;;5037089;28;20493;-80
2023/12/10 11:00:57;;;;;;;16.35;2.90;;;10.30;96.00;;;;;;5055130;28;20100;-82
2023/12/10 11:03:26;;;;;;;25.58;3.45;;;10.40;95.90;;;;;;5052580;28;20082;-80
2023/12/10 11:05:56;;;;;;;23.60;3.10;;;10.50;95.70;;;;;;5054730;28;20396;-82
2023/12/10 11:08:23;;;;;;;25.77;3.55;;;10.50;95.70;;;;;;5054935;28;20043;-83
2023/12/10 11:10:58;;;;;;;21.50;2.63;;;10.50;95.90;;;;;;5054920;28;20123;-82
2023/12/10 11:13:46;;;;;;;17.75;3.17;;;10.60;95.70;;;;;;5037014;28;20037;-83
2023/12/10 11:16:12;;;;;;;22.50;2.92;;;10.80;96.30;;;;;;5036522;28;20033;-83
2023/12/10 11:18:56;;;;;;;20.55;2.92;;;10.90;95.80;;;;;;5036718;28;20024;-83
2023/12/10 11:21:22;;;;;;;21.80;2.75;;;11.10;95.30;;;;;;5054526;28;20041;-83
2023/12/10 11:23:48;;;;;;;19.05;2.75;;;11.20;95.20;;;;;;5054361;28;20048;-83
2023/12/10 11:26:16;;;;;;;17.42;2.35;;;11.20;95.00;;;;;;5054070;28;20056;-83
2023/12/10 11:28:42;;;;;;;19.38;2.53;;;11.20;94.60;;;;;;5052898;28;20037;-83
2023/12/10 11:31:08;;;;;;;23.60;4.03;;;11.10;94.40;;;;;;5054589;28;20109;-83
2023/12/10 11:33:41;;;;;;;22.30;2.80;;;11.10;94.50;;;;;;5054390;28;20119;-83
2023/12/10 11:36:08;;;;;;;18.77;3.13;;;11.10;94.70;;;;;;5054452;28;20040;-83
2023/12/10 11:38:34;;;;;;;18.70;2.75;;;11.10;95.00;;;;;;5035888;28;20782;-82
2023/12/10 11:41:00;;;;;;;28.30;3.47;;;11.20;95.20;;;;;;5053161;28;20071;-81
2023/12/10 11:43:26;;;;;;;19.02;3.25;;;11.30;94.90;;;;;;5053803;28;20041;-83
2023/12/10 11:45:56;;;;;;;20.65;3.38;;;11.50;95.30;;;;;;5054087;28;20052;-83
2023/12/10 11:48:22;;;;;;;22.00;2.85;;;11.80;94.90;;;;;;5054548;28;20056;-82
2023/12/10 11:50:49;;;;;;;17.90;3.13;;;12.10;94.80;;;;;;5054066;28;20476;-82
2023/12/10 11:53:17;;;;;;;21.77;3.40;;;12.50;94.60;;;;;;5054058;28;20063;-83
2023/12/10 11:55:43;;;;;;;19.13;2.85;;;12.90;94.40;;;;;;5053236;28;20044;-82
2023/12/10 11:58:09;;;;;;;13.95;2.47;;;13.30;93.80;;;;;;5051848;28;20040;-82
2023/12/10 12:00:36;;;;;;;14.48;2.25;;;13.50;92.60;;;;;;5053765;28;20033;-83
2023/12/10 12:03:07;;;;;;;17.70;2.72;;;13.50;92.00;;;;;;5035848;28;20481;-82
2023/12/10 12:05:33;;;;;;;17.15;2.38;;;13.30;90.40;;;;;;5053703;28;20036;-84
2023/12/10 12:07:59;;;;;;;21.52;2.95;;;13.10;90.40;;;;;;5053828;28;20397;-83
2023/12/10 12:10:36;;;;;;;16.40;2.45;;;12.90;90.20;;;;;;5052283;28;20033;-83
2023/12/10 12:13:02;;;;;;;14.55;2.47;;;12.80;90.60;;;;;;5052975;28;20123;-83
2023/12/10 12:15:27;;;;;;;13.65;1.88;;;13.00;91.20;;;;;;5051576;28;20056;-81
2023/12/10 12:17:53;;;;;;;14.60;3.20;;;13.00;90.50;;;;;;5037685;28;20460;-80
2023/12/10 12:20:24;;;;;;;17.13;2.40;;;13.10;90.30;;;;;;5053585;28;20032;-82
2023/12/10 12:22:50;;;;;;;13.30;2.33;;;13.10;90.90;;;;;;5053390;28;20040;-81
2023/12/10 12:25:16;;;;;;;15.00;3.13;;;13.20;90.70;;;;;;5054539;28;20045;-83
2023/12/10 12:27:43;;;;;;;14.63;3.28;;;13.30;90.50;;;;;;5037441;28;20087;-83
2023/12/10 12:30:09;;;;;;;10.38;1.58;;;13.30;90.20;;;;;;5053669;28;20477;-83
2023/12/10 12:32:35;;;;;;;15.07;2.35;;;13.10;90.00;;;;;;5052837;28;20090;-82
2023/12/10 12:35:01;;;;;;;13.98;2.28;;;13.00;89.70;;;;;;5053340;28;20037;-80
2023/12/10 12:37:26;;;;;;;18.15;2.33;;;12.80;89.50;;;;;;5077872;22;20048;-80
2023/12/10 12:39:54;;;;;;;14.20;2.08;;;12.60;89.70;;;;;;5053114;28;20029;-82
2023/12/10 12:42:20;;;;;;;17.02;2.50;;;12.40;89.70;;;;;;5052705;28;20037;-81